Kingwood, TX (77325)

12:29 PM CDT on July 01, 2015 (GMT -0500)
Hunters Ridge Northpark | | Change Station
CLOSE
Current Station
Personal Weather Station
Location: Houston, TX
Elevation: 89 ft
Nearby Weather Stations

Elev 89 ft 30.07 °N, 95.20 °W | Updated 3 seconds ago

Thunderstorm
Thunderstorm
77.2 °F
Feels Like 79 °F
N
0.0
Wind Variable Wind from NNE
Gusts 5.0 mph

Today
High -- | Low -- °F
--% Chance of Precip.
Yesterday
High -- | Low -- °F
Precip. -- in
6:23 AM 8:26 PM
Full, 100% visible
Pressure 30.10 in
Visibility 2.0 miles
Clouds Few 800 ft
Mostly Cloudy 3000 ft
Overcast 10000 ft
Heat Index 79 °F
Dew Point 74 °F
Humidity 89%
Rainfall 0.22 in
Snow Depth Not available.
UV 4 out of 12
Pollen 3.70 out of 12
Air Quality Not available.
Flu Activity Not available.
SPECI KIAH 011726Z 11004KT 2SM +TSRA FEW008 BKN030CB OVC100 23/22 A3010 RMK AO2 TS FRQ LTGICCCCG OHD-NW-NE MOVG N P0028

More Conditions Fewer Conditions

Pressure 30.10 in
Visibility 2.0 miles
Clouds Few 800 ft
Mostly Cloudy 3000 ft
Overcast 10000 ft
Heat Index 79 °F
Dew Point 74 °F
Humidity 89%
Rainfall 0.22 in
Snow Depth Not available.
UV 4 out of 12
Pollen 3.70 out of 12
Air Quality Not available.
Flu Activity Not available.
SPECI KIAH 011726Z 11004KT 2SM +TSRA FEW008 BKN030CB OVC100 23/22 A3010 RMK AO2 TS FRQ LTGICCCCG OHD-NW-NE MOVG N P0028

More Conditions Fewer Conditions

10-Day Weather Forecast

×

Almanac

Astronomy

Jul. 01, 2015 Rise Set
Actual Time
Civil Twilight
Nautical Twilight
Astronomical Twilight
Moon
Length of Visible Light
Length of Day
Tomorrow will be .
, % of the Moon is Illuminated

Today's Extremes

State Highs State Lows

Community

WunderPhotos

Upload Photos

1,834,216 photos uploaded!

WunderBlogs® & News

Nearby

Air Quality

  Air Quality AQ Index Pollutant
Not available.

Snow Depth

Station Depth Elevation

Earthquake Activity

City Distance Mag. Time & Date
Minimum magnitude displayed is 2.5.

Coastal Water Temperatures

Place Temperature

Stations

Nearby Weather Stations

Station Location Temp. Windchill Dew Point Humidity Wind Precip. Elev Updated Type